createdAt,value
2017-09-20T00:01:36.904Z,10.13
2017-09-20T00:04:05.199Z,8.70
2017-09-20T00:06:32.729Z,10.27
2017-09-20T00:09:01.063Z,10.70
2017-09-20T00:11:28.567Z,10.83
2017-09-20T00:13:56.840Z,10.80
2017-09-20T00:16:25.132Z,9.57
2017-09-20T00:18:52.651Z,10.90
2017-09-20T00:21:20.186Z,11.07
2017-09-20T00:23:47.696Z,9.03
2017-09-20T00:26:15.996Z,10.53
2017-09-20T00:28:43.515Z,11.03
2017-09-20T00:31:11.042Z,10.60
2017-09-20T00:33:38.566Z,10.77
2017-09-20T00:36:06.097Z,12.00
2017-09-20T00:38:34.407Z,11.23
2017-09-20T00:41:01.934Z,10.60
2017-09-20T00:43:30.407Z,11.47
2017-09-20T00:45:58.688Z,10.73
2017-09-20T00:48:26.967Z,12.03
2017-09-20T00:50:54.500Z,12.23
2017-09-20T00:53:22.796Z,12.90
2017-09-20T00:55:50.343Z,11.10
2017-09-20T00:58:18.639Z,11.03
2017-09-20T01:00:46.357Z,13.27
2017-09-20T01:03:13.871Z,13.60
2017-09-20T01:05:41.403Z,14.90
2017-09-20T01:08:08.927Z,13.87
2017-09-20T01:10:36.461Z,13.30
2017-09-20T01:13:03.976Z,12.60
2017-09-20T01:15:32.273Z,15.17
2017-09-20T01:17:59.783Z,13.90
2017-09-20T01:23:43.449Z,14.80
2017-09-20T01:26:11.740Z,15.73
2017-09-20T01:28:39.319Z,16.00
2017-09-20T01:31:06.986Z,16.33
2017-09-20T01:33:34.507Z,16.60
2017-09-20T01:36:02.802Z,16.33
2017-09-20T01:38:30.360Z,16.70
2017-09-20T01:40:57.861Z,17.20
2017-09-20T01:43:25.381Z,15.50
2017-09-20T01:45:52.907Z,17.83
2017-09-20T01:48:21.238Z,15.80
2017-09-20T01:50:48.745Z,17.33
2017-09-20T01:53:17.022Z,16.83
2017-09-20T01:55:45.335Z,16.00
2017-09-20T01:58:12.868Z,15.90
2017-09-20T02:00:40.391Z,18.20
2017-09-20T02:03:07.920Z,18.13
2017-09-20T02:05:35.449Z,18.50
2017-09-20T02:08:02.964Z,17.70
2017-09-20T02:10:31.503Z,17.77
2017-09-20T02:12:59.051Z,18.40
2017-09-20T02:15:26.571Z,19.03
2017-09-20T02:17:54.873Z,19.87
2017-09-20T02:20:22.397Z,18.50
2017-09-20T02:22:50.691Z,20.20
2017-09-20T02:25:18.977Z,21.40
2017-09-20T02:27:46.512Z,21.07
2017-09-20T02:30:14.779Z,20.70
2017-09-20T02:32:43.088Z,19.73
2017-09-20T02:35:10.625Z,18.40
2017-09-20T02:37:39.140Z,18.47
2017-09-20T02:40:06.664Z,19.83
2017-09-20T02:42:34.969Z,19.17
2017-09-20T02:45:02.524Z,20.70
2017-09-20T02:47:30.040Z,21.73
2017-09-20T02:49:58.354Z,19.30
2017-09-20T02:52:26.023Z,19.77
2017-09-20T02:54:53.585Z,19.70
2017-09-20T02:57:21.149Z,18.40
2017-09-20T02:59:48.660Z,20.40
2017-09-20T03:02:16.965Z,21.73
2017-09-20T03:04:44.487Z,22.40
2017-09-20T03:07:12.794Z,21.27
2017-09-20T03:09:40.294Z,22.33
2017-09-20T03:12:07.858Z,21.40
2017-09-20T03:14:36.163Z,20.00
2017-09-20T03:17:04.466Z,21.07
2017-09-20T03:19:31.995Z,21.13
2017-09-20T03:22:00.322Z,19.57
2017-09-20T03:24:27.843Z,21.43
2017-09-20T03:26:55.378Z,21.20
2017-09-20T03:29:23.702Z,22.50
2017-09-20T03:31:51.215Z,20.80
2017-09-20T03:34:19.659Z,21.73
2017-09-20T03:36:48.367Z,22.90
2017-09-20T03:39:16.688Z,21.87
2017-09-20T03:41:44.205Z,21.17
2017-09-20T03:44:12.495Z,21.90
2017-09-20T03:46:40.089Z,23.10
2017-09-20T03:49:07.648Z,22.57
2017-09-20T03:51:35.180Z,22.33
2017-09-20T03:54:02.695Z,22.17
2017-09-20T03:56:30.224Z,22.70
2017-09-20T03:58:57.735Z,22.57
2017-09-20T04:01:26.033Z,22.13
2017-09-20T04:03:53.549Z,23.13
2017-09-20T04:06:21.140Z,22.80
2017-09-20T04:08:48.655Z,23.00
2017-09-20T04:11:16.191Z,23.90
2017-09-20T04:13:43.728Z,22.53
2017-09-20T04:16:11.261Z,22.97
2017-09-20T04:18:38.795Z,22.40
2017-09-20T04:21:06.330Z,24.27
2017-09-20T04:23:33.854Z,22.47
2017-09-20T04:26:01.387Z,24.50
2017-09-20T04:28:29.672Z,22.37
2017-09-20T04:30:57.227Z,21.30
2017-09-20T04:33:24.752Z,21.07
2017-09-20T04:35:52.273Z,22.30
2017-09-20T04:38:19.795Z,22.00
2017-09-20T04:40:47.347Z,24.17
2017-09-20T04:43:15.669Z,22.50
2017-09-20T04:45:43.197Z,23.10
2017-09-20T04:48:10.728Z,22.27
2017-09-20T04:50:39.004Z,22.77
2017-09-20T04:53:07.303Z,22.47
2017-09-20T04:55:34.836Z,21.60
2017-09-20T04:58:03.145Z,22.37
2017-09-20T05:00:30.703Z,20.77
2017-09-20T05:02:58.224Z,23.17
2017-09-20T05:05:26.518Z,22.67
2017-09-20T05:07:54.034Z,22.03
2017-09-20T05:10:21.579Z,23.47
2017-09-20T05:12:49.095Z,23.50
2017-09-20T05:15:16.655Z,21.40
2017-09-20T05:17:44.181Z,23.30
2017-09-20T05:20:12.481Z,21.47
2017-09-20T05:22:40.018Z,22.67
2017-09-20T05:25:08.297Z,20.97
2017-09-20T05:27:36.620Z,22.10
2017-09-20T05:30:04.133Z,19.97
2017-09-20T05:32:32.451Z,23.43
2017-09-20T05:34:59.991Z,23.40
2017-09-20T05:37:27.527Z,21.37
2017-09-20T05:39:55.837Z,21.57
2017-09-20T05:42:23.356Z,21.83
2017-09-20T05:44:50.894Z,20.87
2017-09-20T05:47:18.414Z,21.97
2017-09-20T05:49:45.985Z,22.30
2017-09-20T05:52:13.530Z,21.83
2017-09-20T05:54:41.057Z,21.80
2017-09-20T05:57:08.584Z,21.90
2017-09-20T05:59:36.191Z,21.70
2017-09-20T06:02:03.727Z,21.13
2017-09-20T06:04:31.988Z,23.50
2017-09-20T06:07:00.507Z,21.47
2017-09-20T06:09:28.061Z,19.73
2017-09-20T06:11:55.573Z,21.27
2017-09-20T06:14:23.873Z,22.90
2017-09-20T06:16:51.388Z,19.53
2017-09-20T06:19:18.931Z,21.00
2017-09-20T06:21:46.448Z,24.37
2017-09-20T06:24:14.121Z,33.13
2017-09-20T06:26:41.651Z,22.27
2017-09-20T06:29:09.935Z,26.20
2017-09-20T06:31:38.248Z,23.03
2017-09-20T06:34:05.794Z,22.63
2017-09-20T06:36:33.323Z,20.50
2017-09-20T06:39:01.628Z,22.83
2017-09-20T06:41:29.175Z,20.87
2017-09-20T06:43:56.687Z,22.97
2017-09-20T06:46:24.227Z,21.23
2017-09-20T06:48:51.791Z,22.80
2017-09-20T06:51:19.332Z,22.93
2017-09-20T06:53:46.845Z,22.80
2017-09-20T06:56:15.150Z,19.80
2017-09-20T06:58:42.683Z,20.80
2017-09-20T07:01:10.194Z,21.70
2017-09-20T07:03:37.719Z,21.53
2017-09-20T07:06:05.220Z,19.50
2017-09-20T07:08:32.768Z,22.87
2017-09-20T07:11:00.318Z,21.03
2017-09-20T07:13:27.838Z,20.10
2017-09-20T07:15:55.368Z,30.53
2017-09-20T07:18:23.637Z,23.67
2017-09-20T07:20:51.940Z,21.60
2017-09-20T07:23:19.465Z,22.10
2017-09-20T07:25:47.751Z,21.07
2017-09-20T07:28:16.024Z,25.07
2017-09-20T07:30:44.544Z,21.67
2017-09-20T07:33:12.076Z,21.27
2017-09-20T07:35:39.606Z,21.80
2017-09-20T07:38:07.127Z,22.60
2017-09-20T07:40:34.664Z,22.67
2017-09-20T07:43:02.196Z,22.93
2017-09-20T07:45:30.488Z,23.73
2017-09-20T07:47:58.036Z,25.17
2017-09-20T07:50:26.314Z,24.77
2017-09-20T07:52:53.884Z,24.70
2017-09-20T07:55:21.397Z,25.13
2017-09-20T07:57:48.959Z,25.77
2017-09-20T08:00:17.252Z,29.00
2017-09-20T08:02:45.552Z,53.90
2017-09-20T08:05:13.132Z,23.73
2017-09-20T08:07:40.750Z,24.10
2017-09-20T08:10:09.024Z,25.23
2017-09-20T08:12:37.299Z,26.20
2017-09-20T08:15:05.604Z,22.87
2017-09-20T08:17:33.111Z,21.53
2017-09-20T08:20:00.643Z,21.90
2017-09-20T08:22:28.155Z,19.97
2017-09-20T08:24:55.724Z,17.77
2017-09-20T08:27:23.250Z,15.30
2017-09-20T08:29:51.532Z,13.50
2017-09-20T08:32:19.847Z,15.20
2017-09-20T08:34:47.463Z,13.47
2017-09-20T08:37:15.753Z,9.93
2017-09-20T08:39:43.309Z,12.77
2017-09-20T08:42:10.855Z,12.40
2017-09-20T08:44:39.154Z,11.37
2017-09-20T08:47:06.823Z,12.47
2017-09-20T08:49:34.416Z,8.03
2017-09-20T08:52:01.977Z,7.60
2017-09-20T08:54:29.526Z,7.73
2017-09-20T08:56:57.054Z,7.30
2017-09-20T08:59:24.611Z,12.23
2017-09-20T09:01:52.161Z,17.20
2017-09-20T09:04:19.758Z,33.80
2017-09-20T09:06:47.292Z,18.70
2017-09-20T09:09:14.850Z,7.27
2017-09-20T09:11:42.376Z,7.40
2017-09-20T09:14:09.902Z,8.50
2017-09-20T09:16:37.443Z,8.27
2017-09-20T09:19:04.958Z,8.07
2017-09-20T09:21:32.475Z,9.03
2017-09-20T09:23:59.991Z,9.17
2017-09-20T09:26:27.567Z,9.60
2017-09-20T09:28:55.070Z,13.37
2017-09-20T09:31:23.427Z,14.63
2017-09-20T09:33:50.997Z,15.73
2017-09-20T09:36:19.285Z,16.67
2017-09-20T09:38:47.589Z,20.50
2017-09-20T09:41:15.108Z,22.73
2017-09-20T09:43:43.423Z,23.17
2017-09-20T09:46:10.942Z,26.17
2017-09-20T09:48:39.272Z,29.67
2017-09-20T09:51:06.817Z,29.47
2017-09-20T09:53:34.361Z,28.60
2017-09-20T09:56:01.963Z,29.10
2017-09-20T09:58:29.512Z,28.43
2017-09-20T10:00:57.049Z,28.33
2017-09-20T10:03:24.572Z,28.87
2017-09-20T10:05:53.005Z,28.93
2017-09-20T10:08:20.515Z,24.70
2017-09-20T10:10:48.825Z,24.67
2017-09-20T10:13:16.339Z,24.80
2017-09-20T10:15:44.633Z,24.87
2017-09-20T10:18:12.311Z,25.03
2017-09-20T10:20:39.840Z,26.30
2017-09-20T10:23:08.126Z,25.80
2017-09-20T10:25:35.652Z,24.43
2017-09-20T10:28:03.944Z,34.27
2017-09-20T10:30:32.261Z,27.37
2017-09-20T10:32:59.780Z,23.13
2017-09-20T10:35:28.096Z,30.27
2017-09-20T10:37:55.611Z,24.77
2017-09-20T10:40:23.903Z,25.40
2017-09-20T10:42:51.441Z,24.90
2017-09-20T10:45:19.716Z,25.17
2017-09-20T10:47:48.195Z,24.40
2017-09-20T10:50:16.475Z,26.60
2017-09-20T10:52:44.750Z,25.97
2017-09-20T10:55:12.308Z,26.10
2017-09-20T10:57:39.866Z,22.73
2017-09-20T11:00:07.407Z,23.73
2017-09-20T11:02:35.711Z,24.20
2017-09-20T11:05:03.242Z,23.07
2017-09-20T11:07:31.548Z,25.27
2017-09-20T11:09:59.106Z,24.40
2017-09-20T11:12:26.635Z,23.57
2017-09-20T11:14:54.955Z,22.07
2017-09-20T11:17:22.498Z,22.60
2017-09-20T11:19:50.033Z,20.77
2017-09-20T11:22:18.330Z,21.33
2017-09-20T11:24:45.870Z,21.50
2017-09-20T11:27:14.247Z,22.37
2017-09-20T11:29:41.811Z,22.70
2017-09-20T11:32:09.362Z,22.10
2017-09-20T11:34:37.640Z,22.47
2017-09-20T11:37:05.164Z,21.97
2017-09-20T11:39:32.699Z,20.60
2017-09-20T11:42:00.245Z,17.30
2017-09-20T11:44:27.761Z,18.57
2017-09-20T11:46:56.045Z,19.13
2017-09-20T11:49:23.598Z,18.23
2017-09-20T11:51:51.884Z,20.10
2017-09-20T11:54:19.411Z,17.83
2017-09-20T11:56:47.707Z,21.10
2017-09-20T11:59:15.999Z,22.17
2017-09-20T12:01:43.666Z,20.17
2017-09-20T12:04:11.343Z,21.50
2017-09-20T12:06:38.851Z,18.57
2017-09-20T12:09:07.142Z,19.73
2017-09-20T12:11:34.679Z,19.77
2017-09-20T12:14:02.955Z,17.87
2017-09-20T12:16:31.264Z,18.60
2017-09-20T12:18:58.779Z,17.50
2017-09-20T12:21:26.327Z,17.53
2017-09-20T12:23:53.856Z,18.43
2017-09-20T12:26:21.396Z,17.83
2017-09-20T12:28:48.920Z,18.20
2017-09-20T12:31:17.231Z,17.77
2017-09-20T12:33:44.742Z,16.00
2017-09-20T12:36:13.091Z,16.30
2017-09-20T12:38:40.595Z,15.70
2017-09-20T12:41:08.882Z,17.00
2017-09-20T12:43:36.415Z,15.90
2017-09-20T12:46:04.698Z,15.20
2017-09-20T12:48:33.007Z,15.93
2017-09-20T12:51:00.535Z,17.07
2017-09-20T12:53:28.838Z,17.83
2017-09-20T12:55:56.358Z,17.97
2017-09-20T12:58:24.640Z,17.67
2017-09-20T13:00:52.948Z,16.90
2017-09-20T13:03:20.473Z,30.43
2017-09-20T13:05:48.783Z,15.57
2017-09-20T13:08:16.345Z,16.53
2017-09-20T13:10:43.890Z,15.83
2017-09-20T13:13:11.418Z,14.83
2017-09-20T13:15:39.745Z,16.10
2017-09-20T13:18:07.278Z,14.80
2017-09-20T13:20:34.783Z,12.70
2017-09-20T13:23:03.831Z,13.73
2017-09-20T13:25:31.352Z,13.30
2017-09-20T13:27:59.675Z,13.00
2017-09-20T13:30:27.230Z,14.70
2017-09-20T13:32:54.755Z,13.70
2017-09-20T13:35:23.035Z,13.43
2017-09-20T13:37:50.561Z,15.70
2017-09-20T13:40:18.068Z,13.20
2017-09-20T13:42:45.602Z,14.27
2017-09-20T13:45:13.876Z,14.37
2017-09-20T13:47:42.230Z,13.63
2017-09-20T13:50:09.740Z,15.20
2017-09-20T13:52:37.278Z,16.23
2017-09-20T13:55:04.825Z,15.17
2017-09-20T13:57:33.110Z,15.50
2017-09-20T14:00:00.666Z,15.03
2017-09-20T14:02:28.200Z,14.83
2017-09-20T14:04:56.511Z,14.40
2017-09-20T14:07:24.036Z,14.50
2017-09-20T14:09:52.346Z,13.57
2017-09-20T14:12:20.483Z,9.10
2017-09-20T14:14:48.764Z,11.97
2017-09-20T14:17:17.060Z,10.50
2017-09-20T14:19:44.578Z,18.00
2017-09-20T14:22:13.616Z,9.63
2017-09-20T14:24:41.121Z,9.43
2017-09-20T14:27:08.650Z,11.20
2017-09-20T14:29:36.170Z,8.97
2017-09-20T14:32:03.696Z,11.60
2017-09-20T14:34:31.235Z,9.60
2017-09-20T14:36:58.775Z,9.13
2017-09-20T14:39:26.301Z,8.60
2017-09-20T14:41:53.819Z,8.43
2017-09-20T14:44:21.321Z,8.00
2017-09-20T14:46:48.871Z,7.30
2017-09-20T14:49:16.391Z,7.50
2017-09-20T14:51:43.911Z,8.07
2017-09-20T14:54:11.436Z,6.83
2017-09-20T14:56:39.716Z,8.87
2017-09-20T14:59:07.243Z,7.53
2017-09-20T15:01:34.743Z,7.40
2017-09-20T15:04:02.412Z,7.70
2017-09-20T15:06:29.940Z,8.23
2017-09-20T15:08:58.236Z,6.73
2017-09-20T15:11:25.746Z,6.70
2017-09-20T15:13:53.278Z,7.40
2017-09-20T15:16:20.779Z,7.40
2017-09-20T15:18:49.065Z,8.40
2017-09-20T15:21:16.596Z,8.77
2017-09-20T15:23:44.132Z,21.33
2017-09-20T15:26:11.665Z,31.90
2017-09-20T15:28:39.405Z,11.30
2017-09-20T15:31:07.751Z,11.83
2017-09-20T15:33:36.104Z,10.90
2017-09-20T15:36:03.714Z,10.30
2017-09-20T15:38:31.256Z,11.97
2017-09-20T15:40:59.597Z,14.00
2017-09-20T15:43:27.126Z,13.00
2017-09-20T15:45:54.680Z,13.43
2017-09-20T15:48:22.203Z,11.17
2017-09-20T15:50:49.838Z,11.40
2017-09-20T15:53:17.421Z,11.67
2017-09-20T15:55:45.749Z,12.73
2017-09-20T15:58:13.407Z,19.37
2017-09-20T16:00:41.033Z,11.93
2017-09-20T16:03:09.344Z,12.97
2017-09-20T16:05:36.868Z,13.20
2017-09-20T16:08:04.468Z,12.70
2017-09-20T16:10:31.974Z,11.10
2017-09-20T16:13:00.299Z,15.50
2017-09-20T16:15:27.814Z,12.77
2017-09-20T16:17:56.092Z,14.10
2017-09-20T16:20:24.393Z,9.90
2017-09-20T16:22:51.899Z,9.70
2017-09-20T16:25:19.448Z,10.27
2017-09-20T16:27:50.811Z,10.50
2017-09-20T16:30:19.145Z,11.50
2017-09-20T16:32:46.651Z,11.37
2017-09-20T16:35:14.958Z,9.67
2017-09-20T16:37:42.542Z,11.43
2017-09-20T16:40:10.178Z,10.93
2017-09-20T16:42:37.757Z,14.37
2017-09-20T16:45:06.352Z,28.10
2017-09-20T16:47:33.851Z,13.50
2017-09-20T16:50:02.150Z,11.60
2017-09-20T16:52:29.698Z,18.67
2017-09-20T16:54:57.247Z,17.00
2017-09-20T16:57:25.551Z,11.83
2017-09-20T16:59:53.085Z,10.67
2017-09-20T17:02:20.611Z,10.13
2017-09-20T17:04:48.140Z,9.90
2017-09-20T17:07:16.269Z,9.73
2017-09-20T17:09:43.785Z,8.70
2017-09-20T17:12:11.295Z,7.80
2017-09-20T17:14:38.832Z,10.30
2017-09-20T17:17:07.144Z,10.90
2017-09-20T17:19:34.695Z,10.87
2017-09-20T17:22:02.227Z,8.10
2017-09-20T17:24:30.027Z,8.20
2017-09-20T17:26:57.624Z,7.27
2017-09-20T17:29:25.141Z,6.67
2017-09-20T17:31:52.662Z,7.80
2017-09-20T17:34:20.941Z,8.43
2017-09-20T17:36:49.227Z,8.60
2017-09-20T17:39:16.759Z,18.00
2017-09-20T17:41:45.060Z,19.75
2017-09-20T17:44:12.591Z,13.03
2017-09-20T17:46:40.927Z,9.20
2017-09-20T17:49:08.440Z,8.70
2017-09-20T17:51:35.995Z,8.20
2017-09-20T17:54:03.608Z,8.87
2017-09-20T17:56:31.124Z,7.33
2017-09-20T17:58:58.703Z,8.20
2017-09-20T18:01:26.238Z,8.50
2017-09-20T18:03:53.783Z,8.93
2017-09-20T18:06:22.068Z,10.70
2017-09-20T18:08:49.626Z,10.70
2017-09-20T18:11:17.939Z,10.47
2017-09-20T18:13:45.558Z,9.03
2017-09-20T18:16:13.143Z,10.73
2017-09-20T18:18:40.708Z,9.33
2017-09-20T18:21:08.260Z,8.63
2017-09-20T18:23:35.761Z,9.10
2017-09-20T18:26:03.291Z,8.90
2017-09-20T18:28:30.794Z,10.07
2017-09-20T18:30:59.305Z,11.40
2017-09-20T18:33:26.822Z,12.10
2017-09-20T18:35:55.123Z,12.80
2017-09-20T18:38:22.661Z,18.40
2017-09-20T18:40:50.955Z,16.73
2017-09-20T18:43:18.503Z,12.50
2017-09-20T18:45:48.145Z,11.70
2017-09-20T18:48:15.669Z,12.87
2017-09-20T18:50:43.195Z,10.77
2017-09-20T18:53:10.764Z,11.43
2017-09-20T18:55:38.282Z,13.13
2017-09-20T18:58:05.799Z,11.70
2017-09-20T19:00:33.327Z,15.60
2017-09-20T19:03:00.849Z,20.50
2017-09-20T19:05:28.380Z,12.07
2017-09-20T19:07:55.878Z,13.83
2017-09-20T19:10:23.430Z,12.10
2017-09-20T19:12:50.967Z,11.10
2017-09-20T19:15:18.502Z,13.70
2017-09-20T19:17:46.083Z,17.23
2017-09-20T19:20:13.641Z,11.43
2017-09-20T19:22:41.177Z,11.23
2017-09-20T19:25:08.731Z,11.20
2017-09-20T19:27:37.031Z,12.47
2017-09-20T19:30:04.544Z,11.80
2017-09-20T19:32:32.148Z,13.53
2017-09-20T19:34:59.752Z,10.30
2017-09-20T19:37:27.430Z,10.70
2017-09-20T19:39:55.762Z,11.70
2017-09-20T19:42:23.347Z,10.50
2017-09-20T19:44:50.872Z,11.03
2017-09-20T19:47:18.396Z,10.83
2017-09-20T19:49:46.746Z,10.87
2017-09-20T19:52:14.269Z,10.80
2017-09-20T19:54:41.793Z,10.10
2017-09-20T19:57:09.308Z,10.60
2017-09-20T19:59:36.864Z,10.10
2017-09-20T20:02:04.412Z,11.03
2017-09-20T20:04:31.946Z,9.63
2017-09-20T20:06:59.467Z,11.23
2017-09-20T20:09:27.876Z,16.70
2017-09-20T20:11:55.400Z,11.37
2017-09-20T20:14:22.924Z,14.03
2017-09-20T20:16:50.459Z,11.40
2017-09-20T20:19:17.971Z,9.53
2017-09-20T20:21:46.281Z,11.47
2017-09-20T20:24:13.821Z,13.10
2017-09-20T20:26:41.391Z,9.80
2017-09-20T20:29:08.923Z,9.67
2017-09-20T20:31:36.439Z,9.30
2017-09-20T20:34:03.966Z,8.93
2017-09-20T20:36:31.485Z,9.27
2017-09-20T20:38:59.784Z,8.60
2017-09-20T20:41:27.326Z,22.17
2017-09-20T20:43:55.624Z,14.40
2017-09-20T20:46:23.131Z,10.77
2017-09-20T20:48:50.679Z,8.60
2017-09-20T20:51:18.214Z,7.60
2017-09-20T20:53:45.739Z,10.43
2017-09-20T20:56:13.273Z,20.30
2017-09-20T20:58:41.596Z,11.80
2017-09-20T21:01:09.116Z,10.30
2017-09-20T21:03:37.423Z,9.70
2017-09-20T21:06:04.935Z,9.47
2017-09-20T21:08:32.492Z,10.00
2017-09-20T21:11:00.777Z,9.50
2017-09-20T21:13:29.104Z,9.83
2017-09-20T21:15:56.639Z,9.47
2017-09-20T21:18:24.234Z,10.30
2017-09-20T21:20:51.779Z,15.10
2017-09-20T21:23:19.302Z,11.20
2017-09-20T21:25:46.930Z,10.20
2017-09-20T21:28:15.232Z,8.70
2017-09-20T21:30:43.742Z,9.70
2017-09-20T21:33:11.355Z,8.97
2017-09-20T21:35:39.644Z,8.30
2017-09-20T21:38:07.937Z,7.97
2017-09-20T21:40:35.460Z,8.77
2017-09-20T21:43:03.761Z,9.63
2017-09-20T21:45:31.277Z,11.83
2017-09-20T21:47:58.819Z,11.80
2017-09-20T21:50:26.323Z,10.07
2017-09-20T21:52:54.655Z,10.60
2017-09-20T21:55:22.184Z,9.70
2017-09-20T21:57:49.767Z,9.70
2017-09-20T22:00:17.314Z,11.10
2017-09-20T22:02:44.866Z,10.20
2017-09-20T22:05:12.390Z,8.90
2017-09-20T22:07:39.937Z,8.67
2017-09-20T22:10:08.303Z,9.30
2017-09-20T22:12:35.914Z,9.43
2017-09-20T22:15:15.361Z,8.43
2017-09-20T22:17:54.848Z,9.93
2017-09-20T22:20:34.999Z,9.20
2017-09-20T22:23:15.292Z,10.60
2017-09-20T22:25:54.519Z,9.60
2017-09-20T22:28:22.046Z,9.50
2017-09-20T22:30:50.329Z,9.27
2017-09-20T22:33:18.642Z,10.20
2017-09-20T22:35:46.202Z,9.90
2017-09-20T22:38:13.715Z,10.20
2017-09-20T22:40:42.011Z,9.70
2017-09-20T22:43:09.532Z,11.53
2017-09-20T22:45:37.859Z,8.80
2017-09-20T22:48:05.386Z,8.57
2017-09-20T22:50:33.674Z,9.50
2017-09-20T22:53:01.195Z,9.40
2017-09-20T22:55:28.739Z,9.80
2017-09-20T22:57:56.268Z,8.47
2017-09-20T23:00:23.793Z,8.80
2017-09-20T23:02:52.088Z,8.73
2017-09-20T23:05:19.611Z,8.80
2017-09-20T23:07:48.033Z,9.10
2017-09-20T23:10:15.535Z,8.70
2017-09-20T23:12:43.053Z,8.67
2017-09-20T23:15:10.588Z,7.30
2017-09-20T23:17:38.182Z,8.70
2017-09-20T23:20:05.745Z,8.80
2017-09-20T23:22:33.250Z,7.90
2017-09-20T23:25:01.536Z,9.10
2017-09-20T23:27:29.075Z,8.60
2017-09-20T23:29:57.347Z,9.63
2017-09-20T23:32:25.654Z,8.77
2017-09-20T23:34:53.156Z,8.00
2017-09-20T23:37:20.700Z,9.37
2017-09-20T23:39:48.195Z,9.30
2017-09-20T23:42:16.503Z,8.80
2017-09-20T23:44:44.010Z,8.80
2017-09-20T23:47:12.329Z,8.10
2017-09-20T23:49:39.860Z,8.90
2017-09-20T23:52:08.148Z,8.47
2017-09-20T23:54:35.662Z,8.23
2017-09-20T23:57:03.223Z,8.27
2017-09-20T23:59:30.759Z,7.87
